Time;durP1;ratioP1;P1;durP2;ratioP2;P2;SDS_P1;SDS_P2;PMS_P1;PMS_P2;Temp;Humidity;BMP_temperature;BMP_pressure;BME280_temperature;BME280_humidity;BME280_pressure;Samples;Min_cycle;Max_cycle;Signal;HPM_P1;HPM_P2
2021/08/24 00:01:34;;;;;;;5.68;2.88;;;;;;;;;;5106561;28;20028;-59
2021/08/24 00:03:59;;;;;;;3.83;3.00;;;;;;;;;;5096149;28;21248;-57
2021/08/24 00:06:25;;;;;;;3.05;2.30;;;;;;;;;;5106317;28;20051;-58
2021/08/24 00:08:50;;;;;;;4.07;2.58;;;;;;;;;;5095661;28;20032;-58
2021/08/24 00:11:15;;;;;;;3.85;3.13;;;;;;;;;;5094317;28;20020;-58
2021/08/24 00:13:40;;;;;;;3.83;2.42;;;;;;;;;;5077182;28;20026;-56
2021/08/24 00:16:06;;;;;;;3.22;2.15;;;;;;;;;;5095554;28;20012;-58
2021/08/24 00:18:31;;;;;;;4.32;2.47;;;;;;;;;;5095167;28;20028;-58
2021/08/24 00:20:57;;;;;;;3.38;3.00;;;;;;;;;;5111963;28;20102;-56
2021/08/24 00:23:23;;;;;;;4.55;2.70;;;;;;;;;;5109944;28;20020;-57
2021/08/24 00:25:49;;;;;;;5.30;2.78;;;;;;;;;;5094906;28;20039;-56
2021/08/24 00:28:15;;;;;;;4.53;2.72;;;;;;;;;;5095106;28;20044;-58
2021/08/24 00:30:40;;;;;;;5.20;2.97;;;;;;;;;;5095693;28;20045;-58
2021/08/24 00:33:07;;;;;;;5.57;2.90;;;;;;;;;;5094718;28;20020;-58
2021/08/24 00:35:33;;;;;;;4.57;3.10;;;;;;;;;;5094645;28;20031;-58
2021/08/24 00:37:59;;;;;;;4.68;2.58;;;;;;;;;;5095065;28;20428;-57
2021/08/24 00:40:24;;;;;;;4.32;3.30;;;;;;;;;;5094135;28;20022;-57
2021/08/24 00:42:49;;;;;;;4.88;2.53;;;;;;;;;;5094750;28;20051;-56
2021/08/24 00:45:16;;;;;;;4.75;2.40;;;;;;;;;;5095077;28;20024;-56
2021/08/24 00:47:42;;;;;;;5.75;3.40;;;;;;;;;;5094815;28;20050;-57
2021/08/24 00:50:14;;;;;;;4.80;2.72;;;;;;;;;;5105873;28;20470;-55
2021/08/24 00:52:40;;;;;;;4.20;2.22;;;;;;;;;;5101338;28;20032;-56
2021/08/24 00:55:05;;;;;;;4.90;2.83;;;;;;;;;;5094680;28;20023;-56
2021/08/24 00:57:30;;;;;;;6.65;3.28;;;;;;;;;;5094552;28;20028;-56
2021/08/24 00:59:56;;;;;;;3.97;2.85;;;;;;;;;;5092966;28;20567;-57
2021/08/24 01:02:21;;;;;;;4.40;2.78;;;;;;;;;;5094523;28;20428;-58
2021/08/24 01:04:47;;;;;;;7.47;3.20;;;;;;;;;;5093564;28;20012;-58
2021/08/24 01:07:19;;;;;;;3.80;2.63;;;;;;;;;;5094699;28;20027;-55
2021/08/24 01:09:53;;;;;;;3.40;2.47;;;;;;;;;;5092850;28;20370;-57
2021/08/24 01:12:40;;;;;;;4.25;2.35;;;;;;;;;;5094241;28;20031;-57
2021/08/24 01:15:05;;;;;;;6.47;2.88;;;;;;;;;;5094125;28;20019;-59
2021/08/24 01:17:39;;;;;;;3.83;2.72;;;;;;;;;;5094197;28;20020;-56
2021/08/24 01:20:05;;;;;;;4.05;2.80;;;;;;;;;;5094348;28;20031;-57
2021/08/24 01:22:55;;;;;;;4.22;2.55;;;;;;;;;;5094432;28;20024;-57
2021/08/24 01:25:25;;;;;;;3.78;2.80;;;;;;;;;;5093623;28;20621;-55
2021/08/24 01:27:57;;;;;;;3.63;2.88;;;;;;;;;;5093910;28;20050;-57
2021/08/24 01:30:42;;;;;;;5.22;3.40;;;;;;;;;;5094263;28;20012;-58
2021/08/24 01:33:15;;;;;;;5.63;2.65;;;;;;;;;;5092894;28;20020;-58
2021/08/24 01:35:44;;;;;;;4.15;2.88;;;;;;;;;;5074316;28;20040;-58
2021/08/24 01:38:20;;;;;;;3.40;2.70;;;;;;;;;;5075386;28;20540;-57
2021/08/24 01:40:57;;;;;;;5.45;2.60;;;;;;;;;;5093519;28;20028;-59
2021/08/24 01:43:27;;;;;;;7.10;2.85;;;;;;;;;;5093535;28;20470;-58
2021/08/24 01:45:57;;;;;;;7.70;3.08;;;;;;;;;;5090733;28;20024;-56
2021/08/24 01:48:33;;;;;;;5.15;3.08;;;;;;;;;;5073639;28;20034;-58
2021/08/24 01:51:01;;;;;;;5.05;3.08;;;;;;;;;;5075714;28;20081;-58
2021/08/24 01:53:26;;;;;;;5.35;3.08;;;;;;;;;;5093086;28;20020;-57
2021/08/24 01:55:55;;;;;;;5.22;2.75;;;;;;;;;;5093084;28;20027;-55
2021/08/24 01:58:23;;;;;;;4.88;3.22;;;;;;;;;;5093206;28;20024;-58
2021/08/24 02:00:51;;;;;;;4.00;2.88;;;;;;;;;;5093408;28;20048;-56
2021/08/24 02:03:20;;;;;;;4.80;2.90;;;;;;;;;;5093015;28;20027;-56
2021/08/24 02:05:50;;;;;;;4.88;2.70;;;;;;;;;;5100211;28;20020;-57
2021/08/24 02:08:18;;;;;;;4.35;2.83;;;;;;;;;;5113320;28;20089;-57
2021/08/24 02:10:44;;;;;;;5.68;2.78;;;;;;;;;;5103908;28;20439;-58
2021/08/24 02:13:11;;;;;;;5.22;3.30;;;;;;;;;;5092876;28;20099;-57
2021/08/24 02:15:37;;;;;;;6.22;2.92;;;;;;;;;;5093362;28;20008;-58
2021/08/24 02:18:04;;;;;;;3.53;2.83;;;;;;;;;;5092859;28;20057;-58
2021/08/24 02:20:31;;;;;;;6.30;2.80;;;;;;;;;;5092283;28;20232;-57
2021/08/24 02:22:59;;;;;;;5.97;2.85;;;;;;;;;;5111288;28;20504;-57
2021/08/24 02:25:28;;;;;;;5.72;3.60;;;;;;;;;;5092684;28;20146;-57
2021/08/24 02:28:04;;;;;;;6.05;3.33;;;;;;;;;;5092654;28;20050;-57
2021/08/24 02:30:30;;;;;;;4.75;3.40;;;;;;;;;;5074543;28;20526;-57
2021/08/24 02:32:56;;;;;;;6.35;3.80;;;;;;;;;;5092062;28;20028;-58
2021/08/24 02:35:24;;;;;;;6.70;3.75;;;;;;;;;;5093108;28;20491;-57
2021/08/24 02:37:51;;;;;;;5.15;4.18;;;;;;;;;;5092921;28;20107;-58
2021/08/24 02:40:20;;;;;;;5.47;3.35;;;;;;;;;;5092413;28;20052;-57
2021/08/24 02:43:04;;;;;;;5.80;4.18;;;;;;;;;;5092225;28;20023;-58
2021/08/24 02:45:32;;;;;;;6.82;4.55;;;;;;;;;;5072648;28;20108;-57
2021/08/24 02:47:58;;;;;;;6.07;4.13;;;;;;;;;;5089905;28;20024;-57
2021/08/24 02:50:24;;;;;;;7.10;3.75;;;;;;;;;;5098448;28;20026;-56
2021/08/24 02:52:49;;;;;;;6.07;4.00;;;;;;;;;;5100032;28;20102;-57
2021/08/24 02:55:14;;;;;;;4.82;3.70;;;;;;;;;;5092629;28;20055;-56
2021/08/24 02:57:40;;;;;;;4.18;3.78;;;;;;;;;;5092319;28;20034;-57
2021/08/24 03:00:05;;;;;;;5.63;3.85;;;;;;;;;;5092022;28;20024;-57
2021/08/24 03:02:31;;;;;;;5.47;3.85;;;;;;;;;;5091810;28;20035;-56
2021/08/24 03:04:56;;;;;;;5.13;3.70;;;;;;;;;;5092623;28;20012;-57
2021/08/24 03:07:29;;;;;;;6.47;4.32;;;;;;;;;;5092397;28;20054;-57
2021/08/24 03:09:55;;;;;;;6.30;3.70;;;;;;;;;;5092060;28;20089;-57
2021/08/24 03:12:38;;;;;;;7.50;3.45;;;;;;;;;;5091838;28;20040;-56
2021/08/24 03:15:13;;;;;;;6.65;4.60;;;;;;;;;;5090252;28;20020;-58
2021/08/24 03:17:42;;;;;;;4.97;4.47;;;;;;;;;;5092537;28;20052;-58
2021/08/24 03:20:09;;;;;;;5.85;4.45;;;;;;;;;;5091981;28;20027;-59
2021/08/24 03:22:35;;;;;;;7.85;5.10;;;;;;;;;;5109760;28;20012;-57
2021/08/24 03:25:01;;;;;;;6.28;4.95;;;;;;;;;;5092054;28;20111;-59
2021/08/24 03:27:26;;;;;;;6.35;4.22;;;;;;;;;;5091593;28;20107;-59
2021/08/24 03:29:56;;;;;;;7.25;4.78;;;;;;;;;;5092166;28;20020;-59
2021/08/24 03:32:22;;;;;;;7.63;5.30;;;;;;;;;;5091609;28;20428;-58
2021/08/24 03:34:47;;;;;;;8.32;5.15;;;;;;;;;;5091837;28;20527;-58
2021/08/24 03:37:12;;;;;;;7.38;5.07;;;;;;;;;;5091835;28;20087;-55
2021/08/24 03:39:37;;;;;;;6.78;5.50;;;;;;;;;;5098709;28;20027;-58
2021/08/24 03:42:02;;;;;;;7.95;5.22;;;;;;;;;;5099149;28;20051;-57
2021/08/24 03:44:28;;;;;;;6.60;6.00;;;;;;;;;;5091686;28;20169;-56
2021/08/24 03:46:53;;;;;;;6.60;5.90;;;;;;;;;;5091005;28;20024;-58
2021/08/24 03:49:18;;;;;;;6.60;5.93;;;;;;;;;;5091886;28;20022;-57
2021/08/24 03:51:43;;;;;;;6.03;5.32;;;;;;;;;;5091232;28;20039;-55
2021/08/24 03:54:08;;;;;;;9.07;5.55;;;;;;;;;;5091609;28;20043;-57
2021/08/24 03:56:34;;;;;;;9.25;6.13;;;;;;;;;;5090866;28;20360;-57
2021/08/24 03:58:59;;;;;;;6.55;5.88;;;;;;;;;;5091680;28;20107;-57
2021/08/24 04:01:24;;;;;;;10.18;5.35;;;;;;;;;;5072727;28;20359;-55
2021/08/24 04:03:49;;;;;;;5.82;5.18;;;;;;;;;;5091335;28;20035;-59
2021/08/24 04:06:14;;;;;;;8.85;5.43;;;;;;;;;;5091702;28;20066;-58
2021/08/24 04:08:39;;;;;;;7.45;5.18;;;;;;;;;;5102123;28;20074;-57
2021/08/24 04:11:05;;;;;;;7.70;5.18;;;;;;;;;;5096801;28;20012;-58
2021/08/24 04:13:31;;;;;;;5.93;4.90;;;;;;;;;;5091199;28;20069;-55
2021/08/24 04:15:56;;;;;;;7.63;5.65;;;;;;;;;;5091409;28;20074;-58
2021/08/24 04:18:21;;;;;;;5.63;5.05;;;;;;;;;;5091549;28;20024;-56
2021/08/24 04:20:47;;;;;;;6.10;5.15;;;;;;;;;;5091780;28;20016;-57
2021/08/24 04:23:14;;;;;;;7.53;5.18;;;;;;;;;;5107504;28;20070;-58
2021/08/24 04:25:39;;;;;;;8.07;5.97;;;;;;;;;;5106153;28;20057;-58
2021/08/24 04:28:04;;;;;;;8.00;5.78;;;;;;;;;;5095006;28;20491;-57
2021/08/24 04:30:30;;;;;;;7.28;5.55;;;;;;;;;;5091686;28;20042;-57
2021/08/24 04:32:55;;;;;;;6.25;5.35;;;;;;;;;;5107572;28;20385;-58
2021/08/24 04:35:20;;;;;;;6.45;5.32;;;;;;;;;;5094393;28;20020;-58
2021/08/24 04:37:45;;;;;;;6.05;5.28;;;;;;;;;;5103878;28;20023;-57
2021/08/24 04:40:11;;;;;;;8.93;5.45;;;;;;;;;;5115013;28;20385;-57
2021/08/24 04:42:37;;;;;;;7.03;5.70;;;;;;;;;;5100107;28;20027;-58
2021/08/24 04:45:02;;;;;;;6.28;5.22;;;;;;;;;;5087675;28;20031;-57
2021/08/24 04:47:28;;;;;;;5.75;4.63;;;;;;;;;;5092889;28;20023;-58
2021/08/24 04:49:53;;;;;;;6.38;5.28;;;;;;;;;;5094618;28;20020;-56
2021/08/24 04:52:18;;;;;;;7.82;4.82;;;;;;;;;;5106068;28;20027;-56
2021/08/24 04:54:43;;;;;;;6.97;4.82;;;;;;;;;;5096995;28;20020;-57
2021/08/24 04:57:09;;;;;;;5.95;4.95;;;;;;;;;;5094457;28;20474;-57
2021/08/24 04:59:34;;;;;;;6.10;4.88;;;;;;;;;;5094787;28;20031;-58
2021/08/24 05:01:59;;;;;;;7.03;4.78;;;;;;;;;;5096809;28;20103;-58
2021/08/24 05:04:25;;;;;;;6.50;4.43;;;;;;;;;;5093836;28;20069;-57
2021/08/24 05:06:51;;;;;;;5.78;4.80;;;;;;;;;;5094620;28;20066;-58
2021/08/24 05:09:16;;;;;;;4.95;4.47;;;;;;;;;;5094497;28;20484;-58
2021/08/24 05:11:41;;;;;;;4.60;4.15;;;;;;;;;;5103395;28;20024;-56
2021/08/24 05:14:07;;;;;;;5.55;5.03;;;;;;;;;;5096860;28;20020;-55
2021/08/24 05:16:32;;;;;;;6.80;4.70;;;;;;;;;;5105243;28;20024;-55
2021/08/24 05:18:57;;;;;;;5.05;4.60;;;;;;;;;;5094284;28;20484;-59
2021/08/24 05:21:22;;;;;;;4.68;3.92;;;;;;;;;;5094065;28;20424;-58
2021/08/24 05:23:48;;;;;;;5.65;4.00;;;;;;;;;;5093357;28;20054;-58
2021/08/24 05:26:14;;;;;;;5.20;3.88;;;;;;;;;;5093719;28;20144;-57
2021/08/24 05:28:40;;;;;;;6.55;4.30;;;;;;;;;;5093534;28;20079;-57
2021/08/24 05:31:05;;;;;;;6.90;4.57;;;;;;;;;;5093493;28;20044;-57
2021/08/24 05:33:33;;;;;;;7.05;4.57;;;;;;;;;;5087602;28;20016;-57
2021/08/24 05:35:59;;;;;;;6.55;4.80;;;;;;;;;;5094018;28;20048;-57
2021/08/24 05:38:24;;;;;;;6.07;5.50;;;;;;;;;;5090134;28;20055;-58
2021/08/24 05:40:50;;;;;;;5.55;5.05;;;;;;;;;;5092900;28;20422;-57
2021/08/24 05:43:15;;;;;;;6.65;5.75;;;;;;;;;;5093070;28;20069;-57
2021/08/24 05:45:40;;;;;;;6.28;5.68;;;;;;;;;;5092096;28;20511;-54
2021/08/24 05:48:06;;;;;;;6.85;6.07;;;;;;;;;;5092990;28;20553;-57
2021/08/24 05:50:31;;;;;;;7.95;6.60;;;;;;;;;;5090651;28;20182;-53
2021/08/24 05:52:56;;;;;;;8.32;7.20;;;;;;;;;;5092696;28;20023;-57
2021/08/24 05:55:21;;;;;;;7.82;6.90;;;;;;;;;;5093749;28;20020;-57
2021/08/24 05:57:47;;;;;;;9.68;7.18;;;;;;;;;;5093155;28;20062;-55
2021/08/24 06:00:12;;;;;;;6.93;5.93;;;;;;;;;;5093559;28;20012;-58
2021/08/24 06:02:37;;;;;;;7.63;6.72;;;;;;;;;;5093048;28;20028;-57
2021/08/24 06:05:03;;;;;;;7.18;6.53;;;;;;;;;;5091032;28;20027;-55
2021/08/24 06:07:29;;;;;;;7.95;7.20;;;;;;;;;;5093252;28;20048;-57
2021/08/24 06:09:54;;;;;;;8.02;7.20;;;;;;;;;;5095064;28;20497;-56
2021/08/24 06:12:19;;;;;;;8.13;6.28;;;;;;;;;;5091490;28;20487;-57
2021/08/24 06:14:45;;;;;;;7.35;6.32;;;;;;;;;;5093134;28;20030;-58
2021/08/24 06:17:10;;;;;;;9.02;6.68;;;;;;;;;;5096186;28;20016;-56
2021/08/24 06:19:35;;;;;;;8.88;5.95;;;;;;;;;;5087873;28;20367;-55
2021/08/24 06:22:01;;;;;;;9.15;6.45;;;;;;;;;;5095496;28;20085;-56
2021/08/24 06:24:26;;;;;;;7.00;6.05;;;;;;;;;;5093042;28;20027;-56
2021/08/24 06:26:51;;;;;;;6.95;5.53;;;;;;;;;;5077764;28;20382;-57
2021/08/24 06:29:17;;;;;;;6.00;5.38;;;;;;;;;;5109768;28;20039;-54
2021/08/24 06:31:44;;;;;;;8.57;5.55;;;;;;;;;;5113155;28;20031;-58
2021/08/24 06:34:11;;;;;;;6.53;5.75;;;;;;;;;;5110992;28;20387;-58
2021/08/24 06:36:37;;;;;;;6.47;5.45;;;;;;;;;;5092903;28;20111;-58
2021/08/24 06:39:03;;;;;;;6.57;5.60;;;;;;;;;;5101926;28;20024;-56
2021/08/24 06:41:28;;;;;;;5.88;5.38;;;;;;;;;;5112737;28;20512;-55
2021/08/24 06:43:53;;;;;;;6.43;5.82;;;;;;;;;;5112982;28;20055;-59
2021/08/24 06:46:19;;;;;;;7.35;5.47;;;;;;;;;;5112017;28;20103;-59
2021/08/24 06:48:45;;;;;;;8.05;5.65;;;;;;;;;;5091014;28;20435;-59
2021/08/24 06:51:10;;;;;;;7.45;6.60;;;;;;;;;;5088585;28;20035;-56
2021/08/24 06:53:37;;;;;;;6.50;5.88;;;;;;;;;;5097134;28;20031;-58
2021/08/24 06:56:03;;;;;;;6.43;5.70;;;;;;;;;;5094471;28;20398;-57
2021/08/24 06:58:28;;;;;;;5.78;5.18;;;;;;;;;;5103881;28;20093;-58
2021/08/24 07:00:53;;;;;;;6.10;5.13;;;;;;;;;;5092675;28;20412;-57
2021/08/24 07:03:18;;;;;;;7.43;5.55;;;;;;;;;;5107052;28;20019;-53
2021/08/24 07:05:45;;;;;;;6.75;5.63;;;;;;;;;;5106844;28;20050;-58
2021/08/24 07:08:11;;;;;;;5.63;5.13;;;;;;;;;;5104943;28;20019;-58
2021/08/24 07:10:36;;;;;;;5.57;4.85;;;;;;;;;;5093094;28;20513;-55
2021/08/24 07:13:01;;;;;;;5.50;4.60;;;;;;;;;;5091559;28;20077;-56
2021/08/24 07:15:27;;;;;;;6.80;4.45;;;;;;;;;;5091749;28;20000;-55
2021/08/24 07:17:53;;;;;;;5.05;4.50;;;;;;;;;;5092016;28;20498;-58
2021/08/24 07:20:19;;;;;;;6.22;4.45;;;;;;;;;;5092808;28;20020;-56
2021/08/24 07:22:45;;;;;;;5.15;4.65;;;;;;;;;;5094539;28;20027;-55
2021/08/24 07:25:11;;;;;;;5.15;4.70;;;;;;;;;;5091718;28;20505;-58
2021/08/24 07:27:36;;;;;;;6.90;4.72;;;;;;;;;;5091251;28;20123;-57
2021/08/24 07:30:02;;;;;;;5.22;4.63;;;;;;;;;;5091877;28;20107;-57
2021/08/24 07:32:27;;;;;;;7.32;4.88;;;;;;;;;;5090465;28;20016;-58
2021/08/24 07:34:52;;;;;;;5.30;4.55;;;;;;;;;;5106712;28;20102;-56
2021/08/24 07:37:17;;;;;;;5.85;4.38;;;;;;;;;;5111230;28;20092;-57
2021/08/24 07:39:43;;;;;;;5.25;4.80;;;;;;;;;;5111498;28;20419;-58
2021/08/24 07:42:08;;;;;;;4.97;4.15;;;;;;;;;;5105841;28;20039;-57
2021/08/24 07:44:34;;;;;;;6.05;5.05;;;;;;;;;;5108155;28;20051;-58
2021/08/24 07:47:00;;;;;;;6.03;4.72;;;;;;;;;;5091763;28;20143;-56
2021/08/24 07:49:25;;;;;;;4.95;4.55;;;;;;;;;;5094200;28;20034;-56
2021/08/24 07:51:50;;;;;;;5.70;4.15;;;;;;;;;;5112062;28;20023;-52
2021/08/24 07:54:15;;;;;;;4.57;4.18;;;;;;;;;;5083693;28;20023;-59
2021/08/24 07:56:40;;;;;;;4.88;4.47;;;;;;;;;;5089037;28;20024;-57
2021/08/24 07:59:06;;;;;;;5.32;4.20;;;;;;;;;;5091344;28;20035;-58
2021/08/24 08:01:31;;;;;;;4.88;4.32;;;;;;;;;;5091253;28;20016;-58
2021/08/24 08:03:56;;;;;;;4.78;4.38;;;;;;;;;;5090285;28;20027;-58
2021/08/24 08:06:21;;;;;;;5.30;4.38;;;;;;;;;;5090159;28;20518;-57
2021/08/24 08:08:47;;;;;;;5.25;4.75;;;;;;;;;;5091313;28;20081;-58
2021/08/24 08:11:12;;;;;;;5.00;4.40;;;;;;;;;;5092451;28;20012;-59
2021/08/24 08:13:39;;;;;;;5.82;4.32;;;;;;;;;;5092820;28;20017;-58
2021/08/24 08:16:04;;;;;;;7.10;4.47;;;;;;;;;;5095512;28;20028;-57
2021/08/24 08:18:30;;;;;;;6.95;4.00;;;;;;;;;;5095047;28;20622;-57
2021/08/24 08:20:55;;;;;;;5.47;4.03;;;;;;;;;;5094578;28;20024;-55
2021/08/24 08:23:20;;;;;;;5.15;4.68;;;;;;;;;;5095162;28;20039;-57
2021/08/24 08:25:45;;;;;;;5.80;4.25;;;;;;;;;;5094452;28;20028;-55
2021/08/24 08:28:11;;;;;;;6.97;4.93;;;;;;;;;;5093713;28;20390;-56
2021/08/24 08:30:36;;;;;;;9.02;4.57;;;;;;;;;;5095010;28;20471;-57
2021/08/24 08:33:02;;;;;;;5.93;4.35;;;;;;;;;;5094017;28;20444;-55
2021/08/24 08:35:28;;;;;;;6.22;4.50;;;;;;;;;;5087004;28;20470;-58
2021/08/24 08:37:53;;;;;;;4.88;4.47;;;;;;;;;;5095022;28;20031;-55
2021/08/24 08:40:27;;;;;;;4.75;4.10;;;;;;;;;;5094818;28;20077;-57
2021/08/24 08:42:56;;;;;;;6.77;4.50;;;;;;;;;;5094189;28;20020;-57
2021/08/24 08:45:25;;;;;;;4.70;4.30;;;;;;;;;;5094241;28;20020;-57
2021/08/24 08:48:13;;;;;;;4.30;3.67;;;;;;;;;;5091834;28;20054;-56
2021/08/24 08:50:59;;;;;;;4.13;3.72;;;;;;;;;;5094917;28;20408;-59
2021/08/24 08:53:39;;;;;;;5.40;3.90;;;;;;;;;;5093347;28;20032;-59
2021/08/24 08:56:08;;;;;;;4.78;4.20;;;;;;;;;;5093456;28;20113;-57
2021/08/24 08:58:42;;;;;;;6.95;4.22;;;;;;;;;;5094541;28;20085;-58
2021/08/24 09:01:33;;;;;;;5.05;3.90;;;;;;;;;;5094384;28;20362;-58
2021/08/24 09:04:07;;;;;;;4.75;4.25;;;;;;;;;;5086129;28;20039;-58
2021/08/24 09:06:33;;;;;;;5.15;4.35;;;;;;;;;;5076211;28;20114;-56
2021/08/24 09:09:00;;;;;;;4.07;3.60;;;;;;;;;;5094219;28;20161;-57
2021/08/24 09:11:28;;;;;;;7.57;3.95;;;;;;;;;;5092994;28;20412;-58
2021/08/24 09:13:56;;;;;;;5.93;4.00;;;;;;;;;;5093376;28;20019;-57
2021/08/24 09:16:21;;;;;;;4.43;3.70;;;;;;;;;;5093225;28;20374;-58
2021/08/24 09:18:49;;;;;;;4.03;3.72;;;;;;;;;;5094090;28;20024;-59
2021/08/24 09:21:18;;;;;;;5.35;3.80;;;;;;;;;;5092752;28;20466;-58
2021/08/24 09:23:44;;;;;;;4.43;3.88;;;;;;;;;;5076105;28;20032;-59
2021/08/24 09:26:18;;;;;;;5.47;4.00;;;;;;;;;;5064025;28;20398;-58
2021/08/24 09:28:44;;;;;;;3.30;3.10;;;;;;;;;;5093836;28;20051;-58
2021/08/24 09:31:14;;;;;;;4.07;3.40;;;;;;;;;;5093779;28;20028;-58
2021/08/24 09:33:39;;;;;;;4.10;3.70;;;;;;;;;;5093703;28;20012;-57
2021/08/24 09:36:04;;;;;;;3.90;3.47;;;;;;;;;;5075360;28;20528;-55
2021/08/24 09:38:31;;;;;;;6.13;3.55;;;;;;;;;;5093662;28;20024;-58
2021/08/24 09:40:58;;;;;;;3.80;3.15;;;;;;;;;;5074876;28;20077;-58
2021/08/24 09:43:26;;;;;;;3.25;2.95;;;;;;;;;;5092523;28;20655;-58
2021/08/24 09:46:15;;;;;;;4.80;3.95;;;;;;;;;;5092462;28;20450;-58
2021/08/24 09:48:48;;;;;;;3.88;3.47;;;;;;;;;;5087152;28;20111;-57
2021/08/24 09:51:32;;;;;;;4.32;3.88;;;;;;;;;;5084837;28;20043;-59
2021/08/24 09:53:58;;;;;;;3.88;3.03;;;;;;;;;;5089162;28;20026;-58
2021/08/24 09:56:25;;;;;;;8.10;4.35;;;;;;;;;;5092670;28;20102;-59
2021/08/24 09:58:50;;;;;;;3.30;3.10;;;;;;;;;;5093145;28;20024;-58
2021/08/24 10:01:16;;;;;;;3.33;3.13;;;;;;;;;;5093412;28;20531;-58
2021/08/24 10:03:48;;;;;;;4.63;2.67;;;;;;;;;;5093330;28;20035;-58
2021/08/24 10:06:34;;;;;;;4.13;3.78;;;;;;;;;;5093293;28;20074;-58
2021/08/24 10:09:11;;;;;;;3.40;3.00;;;;;;;;;;5092348;28;20428;-59
2021/08/24 10:11:36;;;;;;;3.45;2.90;;;;;;;;;;5091915;28;20056;-58
2021/08/24 10:14:18;;;;;;;4.72;3.65;;;;;;;;;;5092255;28;20044;-58
2021/08/24 10:16:45;;;;;;;4.18;2.88;;;;;;;;;;5074154;28;20111;-58
2021/08/24 10:19:19;;;;;;;3.47;2.92;;;;;;;;;;5099107;28;20023;-59
2021/08/24 10:21:50;;;;;;;4.30;2.67;;;;;;;;;;5093063;28;20023;-59
2021/08/24 10:24:21;;;;;;;2.97;2.72;;;;;;;;;;5092227;28;20024;-57
2021/08/24 10:26:51;;;;;;;5.35;2.60;;;;;;;;;;5097534;28;20036;-59
2021/08/24 10:29:24;;;;;;;5.18;3.50;;;;;;;;;;5094009;28;20071;-59
2021/08/24 10:31:54;;;;;;;5.38;2.63;;;;;;;;;;5092382;28;20051;-57
2021/08/24 10:34:37;;;;;;;3.10;2.83;;;;;;;;;;5092567;28;20118;-57
2021/08/24 10:37:26;;;;;;;3.90;2.83;;;;;;;;;;5092156;28;20027;-58
2021/08/24 10:39:52;;;;;;;4.88;2.80;;;;;;;;;;5082778;28;20039;-58
2021/08/24 10:42:18;;;;;;;3.03;2.83;;;;;;;;;;5091742;28;20020;-58
2021/08/24 10:44:54;;;;;;;6.77;3.60;;;;;;;;;;5091592;28;20027;-56
2021/08/24 10:47:22;;;;;;;4.10;3.17;;;;;;;;;;5092281;28;20270;-56
2021/08/24 10:49:48;;;;;;;4.75;2.75;;;;;;;;;;5073838;28;20367;-57
2021/08/24 10:52:20;;;;;;;5.38;2.90;;;;;;;;;;5090528;28;20022;-57
2021/08/24 10:54:57;;;;;;;3.45;3.15;;;;;;;;;;5083023;28;20027;-57
2021/08/24 10:57:34;;;;;;;5.40;2.42;;;;;;;;;;5087795;28;20035;-58
2021/08/24 11:00:05;;;;;;;3.38;2.53;;;;;;;;;;5092109;28;20557;-58
2021/08/24 11:02:44;;;;;;;4.93;2.67;;;;;;;;;;5091225;28;20069;-58
2021/08/24 11:05:29;;;;;;;3.47;2.53;;;;;;;;;;5086759;28;20054;-57
2021/08/24 11:08:03;;;;;;;6.43;2.47;;;;;;;;;;5087385;28;20500;-58
2021/08/24 11:10:39;;;;;;;3.85;2.35;;;;;;;;;;5090816;28;20024;-57
2021/08/24 11:13:07;;;;;;;4.97;2.85;;;;;;;;;;5090159;28;20019;-59
2021/08/24 11:15:50;;;;;;;4.28;2.47;;;;;;;;;;5089704;28;20023;-58
2021/08/24 11:18:20;;;;;;;5.82;2.58;;;;;;;;;;5088938;28;20055;-57
2021/08/24 11:21:04;;;;;;;4.60;3.00;;;;;;;;;;5091181;28;20024;-58
2021/08/24 11:23:40;;;;;;;3.72;2.42;;;;;;;;;;5090636;28;20523;-57
2021/08/24 11:26:20;;;;;;;2.78;2.08;;;;;;;;;;5091479;28;20016;-58
2021/08/24 11:29:17;;;;;;;3.17;2.35;;;;;;;;;;5090267;28;20047;-58
2021/08/24 11:31:50;;;;;;;3.80;2.65;;;;;;;;;;5026636;28;20056;-58
2021/08/24 11:34:19;;;;;;;2.38;2.00;;;;;;;;;;5027867;28;20033;-58
2021/08/24 11:36:47;;;;;;;6.20;3.13;;;;;;;;;;5029644;28;20022;-58
2021/08/24 11:39:20;;;;;;;4.00;2.58;;;;;;;;;;5028691;28;20033;-57
2021/08/24 11:41:47;;;;;;;3.05;2.10;;;;;;;;;;5028726;28;20183;-59
2021/08/24 11:44:14;;;;;;;5.60;2.25;;;;;;;;;;5028050;28;20037;-57
2021/08/24 11:46:42;;;;;;;3.10;1.88;;;;;;;;;;5029131;28;20033;-58
2021/08/24 11:49:22;;;;;;;4.28;2.70;;;;;;;;;;5025458;28;20053;-56
2021/08/24 11:51:51;;;;;;;5.07;2.35;;;;;;;;;;5016715;28;20028;-58
2021/08/24 11:54:23;;;;;;;3.35;2.15;;;;;;;;;;5023130;28;20029;-56
2021/08/24 11:56:51;;;;;;;2.97;2.28;;;;;;;;;;5028860;28;20030;-57
2021/08/24 11:59:19;;;;;;;3.58;1.90;;;;;;;;;;5028482;28;20032;-58
2021/08/24 12:01:46;;;;;;;2.88;2.05;;;;;;;;;;5027127;28;20516;-57
2021/08/24 12:04:13;;;;;;;2.95;1.75;;;;;;;;;;5021254;28;20490;-55
2021/08/24 12:06:44;;;;;;;3.67;1.65;;;;;;;;;;5039809;28;20054;-59
2021/08/24 12:09:16;;;;;;;2.83;1.60;;;;;;;;;;5090122;28;20028;-56
2021/08/24 12:11:46;;;;;;;3.13;1.83;;;;;;;;;;5090185;28;20051;-57
2021/08/24 12:14:30;;;;;;;2.78;1.75;;;;;;;;;;5090675;28;20470;-57
2021/08/24 12:17:02;;;;;;;2.90;1.92;;;;;;;;;;5089646;28;20020;-57
2021/08/24 12:19:28;;;;;;;1.95;1.70;;;;;;;;;;5090655;28;20343;-58
2021/08/24 12:21:58;;;;;;;2.05;1.67;;;;;;;;;;5076889;28;20034;-57
2021/08/24 12:24:23;;;;;;;2.78;1.65;;;;;;;;;;5090147;28;20020;-58
2021/08/24 12:26:49;;;;;;;4.50;2.00;;;;;;;;;;5090418;28;20020;-58
2021/08/24 12:29:35;;;;;;;4.50;1.85;;;;;;;;;;5064852;28;20282;-60
2021/08/24 12:32:03;;;;;;;3.20;2.05;;;;;;;;;;5083447;28;20101;-58
2021/08/24 12:34:34;;;;;;;5.22;1.77;;;;;;;;;;5090747;28;20378;-57
2021/08/24 12:37:04;;;;;;;3.47;1.73;;;;;;;;;;5091436;28;20043;-57
2021/08/24 12:39:37;;;;;;;3.83;1.88;;;;;;;;;;5090913;28;20062;-57
2021/08/24 12:42:14;;;;;;;3.38;1.80;;;;;;;;;;5087365;28;20016;-58
2021/08/24 12:44:45;;;;;;;5.15;1.90;;;;;;;;;;5081553;28;20056;-58
2021/08/24 12:47:30;;;;;;;3.58;1.60;;;;;;;;;;5083585;28;20488;-58
2021/08/24 12:50:18;;;;;;;2.83;1.70;;;;;;;;;;5085454;28;20020;-57
2021/08/24 12:52:43;;;;;;;2.33;1.80;;;;;;;;;;5086431;28;20456;-58
2021/08/24 12:55:08;;;;;;;4.27;2.43;;;;;;;;;;5092110;28;20024;-57
2021/08/24 12:57:33;;;;;;;2.63;2.00;;;;;;;;;;5093866;28;20342;-56
2021/08/24 13:00:11;;;;;;;3.88;2.03;;;;;;;;;;5104265;28;20611;-57
2021/08/24 13:02:36;;;;;;;4.38;1.83;;;;;;;;;;5091790;28;20028;-57
2021/08/24 13:05:05;;;;;;;6.43;2.10;;;;;;;;;;5094112;28;20024;-57
2021/08/24 13:07:31;;;;;;;3.65;2.38;;;;;;;;;;5094691;28;20107;-56
2021/08/24 13:10:04;;;;;;;2.37;1.93;;;;;;;;;;5093925;28;20107;-55
2021/08/24 13:12:37;;;;;;;4.95;2.50;;;;;;;;;;5094146;28;20670;-59
2021/08/24 13:15:22;;;;;;;5.07;2.35;;;;;;;;;;5093818;28;20019;-56
2021/08/24 13:17:48;;;;;;;3.30;2.97;;;;;;;;;;5073745;28;20021;-57
2021/08/24 13:20:22;;;;;;;4.45;3.33;;;;;;;;;;5087691;28;20523;-58
2021/08/24 13:22:52;;;;;;;3.75;2.53;;;;;;;;;;5094231;28;20471;-57
2021/08/24 13:25:20;;;;;;;3.63;2.78;;;;;;;;;;5093279;28;20027;-57
2021/08/24 13:27:48;;;;;;;3.13;2.30;;;;;;;;;;5089166;28;20032;-56
2021/08/24 13:30:15;;;;;;;2.47;2.20;;;;;;;;;;5086112;28;20366;-57
2021/08/24 13:32:44;;;;;;;3.38;2.38;;;;;;;;;;5093928;28;20027;-58
2021/08/24 13:35:15;;;;;;;3.88;2.13;;;;;;;;;;5075405;28;20498;-59
2021/08/24 13:37:42;;;;;;;3.13;2.05;;;;;;;;;;5093485;28;20390;-58
2021/08/24 13:40:13;;;;;;;2.13;1.92;;;;;;;;;;5093540;28;20096;-59
2021/08/24 13:42:46;;;;;;;2.78;2.17;;;;;;;;;;5092955;28;20056;-59
2021/08/24 13:45:15;;;;;;;2.65;2.28;;;;;;;;;;5086771;28;20048;-59
2021/08/24 13:47:44;;;;;;;2.40;1.60;;;;;;;;;;5091734;28;20024;-59
2021/08/24 13:50:16;;;;;;;2.60;2.40;;;;;;;;;;5092685;28;20039;-58
2021/08/24 13:52:42;;;;;;;4.43;1.73;;;;;;;;;;5093217;28;20016;-58
2021/08/24 13:55:24;;;;;;;4.05;2.28;;;;;;;;;;5093048;28;20022;-59
2021/08/24 13:57:49;;;;;;;2.58;2.15;;;;;;;;;;5092245;28;20063;-59
2021/08/24 14:00:18;;;;;;;2.47;2.10;;;;;;;;;;5081440;28;20044;-59
2021/08/24 14:02:48;;;;;;;2.22;2.00;;;;;;;;;;5083449;28;20581;-58
2021/08/24 14:05:14;;;;;;;1.92;1.73;;;;;;;;;;5096175;28;20016;-59
2021/08/24 14:07:40;;;;;;;2.47;1.95;;;;;;;;;;5097441;28;20030;-58
2021/08/24 14:10:15;;;;;;;2.47;1.80;;;;;;;;;;5092796;28;20146;-58
2021/08/24 14:12:48;;;;;;;2.60;1.50;;;;;;;;;;5091380;28;20020;-59
2021/08/24 14:15:15;;;;;;;1.90;1.75;;;;;;;;;;5092231;28;20101;-58
2021/08/24 14:17:40;;;;;;;3.17;1.33;;;;;;;;;;5092613;28;20028;-58
2021/08/24 14:20:07;;;;;;;3.42;1.40;;;;;;;;;;5092671;28;20035;-59
2021/08/24 14:22:33;;;;;;;2.13;1.90;;;;;;;;;;5092370;28;20044;-59
2021/08/24 14:24:58;;;;;;;2.45;2.25;;;;;;;;;;5092513;28;20016;-59
2021/08/24 14:27:24;;;;;;;2.28;2.03;;;;;;;;;;5092423;28;20051;-59
2021/08/24 14:29:50;;;;;;;3.83;1.55;;;;;;;;;;5092501;28;20123;-58
2021/08/24 14:32:31;;;;;;;1.52;1.27;;;;;;;;;;5090137;28;20147;-57
2021/08/24 14:34:56;;;;;;;1.98;1.80;;;;;;;;;;5083646;28;20020;-58
2021/08/24 14:37:23;;;;;;;3.33;1.67;;;;;;;;;;5091896;28;20070;-59
2021/08/24 14:39:53;;;;;;;3.55;1.73;;;;;;;;;;5092222;28;20020;-59
2021/08/24 14:42:34;;;;;;;2.47;1.30;;;;;;;;;;5087141;28;20409;-58
2021/08/24 14:45:00;;;;;;;2.92;1.30;;;;;;;;;;5092034;28;20030;-59
2021/08/24 14:47:40;;;;;;;1.63;1.20;;;;;;;;;;5092123;28;20089;-59
2021/08/24 14:50:06;;;;;;;3.42;1.60;;;;;;;;;;5090598;28;20035;-59
2021/08/24 14:52:31;;;;;;;4.03;1.52;;;;;;;;;;5092507;28;20016;-60